Terminal Aerodrome Forecast
Issued by NWS

Current Version | Previous Version | Graphics & Text | Print | Product List | Glossary On
Versions: 1 2 3 4 5 6 7 8 9 10 11 12 13 14 15 16 17 18 19 20 21 22
042
FTUS41 KPBZ 260414 AAA
TAFMGW
TAF AMD
KMGW 260414Z 2604/2624 28007G15KT P6SM OVC035
     FM261400 28010KT P6SM SCT050
     FM262200 23006KT P6SM SKC=

USA.gov is the U.S. government's official web portal to all federal, state and local government web resources and services.